Notice: Undefined index: language in /home/u908952976/domains/airgaviota-va.com/public_html/vam/index.php on line 25
AirGaviota-VA

... VIRTUAL FLIGHT...OUR PASSION



 FLIGHT DETAILS
Pilot: GVT462 Peter Voksan Aircraft: REDEYES - ANTONOV AN-2 (32V_64B) AN-2-GAVIOTAAIRVAAEROTAXI Distance: 81NM
Departure MUCF Arrival MUBR Duration 01:04
Validation Validated Type Regular Tail Number GV-AET
ZFW 4085 Block Fuel/Initial FOB 94/0 Flight Fuel 80
Passengers 9 Cargo 1980 Alternate MUCM
Departure Time Cruise Speed 100 Flight Level 055
Flight Type VFR Aircraft Type AN2 Weight Unit Kg
Date 29-04-2020 Pilot Comments Network IVAO
Crashed No Validator Comments Flight Rating -30

 ROUTE
ROUTE DCT
REMARKS AIRGAVIOTA AEROTAXI VFR TOUR LEG05.
 FLIGHT FAILURES
Crashed OK Beacon off & Engine Running Fail KIAS Above 250 below 10000 FT OK
Lights OFF below 10000 FT OK Lights ON above 10000 FT OK Stall OK
Overspeed OK Flight paused OK Refueling OK
Slew detected OK Taxi & Taxi lights off Fail Take off & lights off OK
Landing & lights off OK Landed in not planned airport OK Taxi Speed OK
Wrong altimeter in Take off OK Wrong altimeter in Landing OK
 LANDING ANALYSIS
Landing wind 139º/3 kt Landing heading 266
Landing VS: -42.29 ft/min Landing IAS: 50.02 kt
Landing Force G 1 G Landing Bank -1.6
Landing Pitch 3.7 Landing Flaps 0
Navigation Lights ON Landing Lights ON
Beacon Lights OFF Strobe Lights OFF
 FLIGHT MAP
 ALTITUDE CHART
 FLIGHT FINANCIAL REPORT
Cargo:1980 .Price per Cargo Unit:15 29,700.00
Number of PAX:9 .Price per PAX:108 972.00
TOTAL 30,672.00
 MAIN EVENTS
DATE EVENTIASALTITUDE
2020-04-29 09:38:46 SIM ACARS version 1.4.10112
2020-04-29 09:38:46 BOARDING0112
2020-04-29 09:40:14 STARTING ENGINE 1 0112
2020-04-29 09:40:14 BEACON LIGHT OFF & ENGINE ON0112
2020-04-29 09:43:21 FLAPS EXTENSION 1 % 0112
2020-04-29 09:43:22 FLAPS EXTENSION 3 % 0112
2020-04-29 09:43:22 FLAPS EXTENSION 5 % 0112
2020-04-29 09:43:22 FLAPS EXTENSION 7 % 0112
2020-04-29 09:43:22 FLAPS EXTENSION 8 % 0112
2020-04-29 09:43:22 FLAPS EXTENSION 10 % 0112
2020-04-29 09:43:22 FLAPS EXTENSION 12 % 0112
2020-04-29 09:43:22 FLAPS EXTENSION 14 % 0112
2020-04-29 09:43:23 FLAPS EXTENSION 16 % 0112
2020-04-29 09:43:23 FLAPS EXTENSION 17 % 0112
2020-04-29 09:43:23 FLAPS EXTENSION 19 % 0112
2020-04-29 09:43:23 FLAPS EXTENSION 21 % 0112
2020-04-29 09:43:23 FLAPS EXTENSION 24 % 0112
2020-04-29 09:43:23 FLAPS EXTENSION 26 % 0112
2020-04-29 09:43:24 FLAPS EXTENSION 28 % 0112
2020-04-29 09:43:24 FLAPS EXTENSION 32 % 0112
2020-04-29 09:43:24 FLAPS EXTENSION 37 % 0112
2020-04-29 09:44:19 FLAPS EXTENSION 35 % 0112
2020-04-29 09:44:19 FLAPS EXTENSION 33 % 0112
2020-04-29 09:44:20 FLAPS EXTENSION 32 % 0112
2020-04-29 09:44:20 FLAPS EXTENSION 29 % 0112
2020-04-29 09:44:21 FLAPS EXTENSION 26 % 0112
2020-04-29 09:44:21 FLAPS EXTENSION 23 % 0112
2020-04-29 09:44:21 FLAPS EXTENSION 22 % 0112
2020-04-29 09:44:21 FLAPS EXTENSION 21 % 0112
2020-04-29 09:44:27 FLAPS EXTENSION 22 % 0112
2020-04-29 09:44:27 FLAPS EXTENSION 24 % 0112
2020-04-29 09:44:27 FLAPS EXTENSION 26 % 0112
2020-04-29 09:44:27 FLAPS EXTENSION 28 % 0112
2020-04-29 09:44:27 FLAPS EXTENSION 30 % 0112
2020-04-29 09:44:27 FLAPS EXTENSION 33 % 0112
2020-04-29 09:44:28 FLAPS EXTENSION 35 % 0112
2020-04-29 09:44:28 FLAPS EXTENSION 37 % 0112
2020-04-29 09:48:57 TAXI TO THE RWY 10112
2020-04-29 09:48:57 TAXING WITH TAXI LIGHTS OFF10112
2020-04-29 09:49:09 ROLLING FOR TAKE OFF45112
2020-04-29 09:49:13 TAKE OFF50115
2020-04-29 09:50:19 FLAPS EXTENSION 36 % 54509
2020-04-29 09:50:19 FLAPS EXTENSION 32 % 54511
2020-04-29 09:50:20 FLAPS EXTENSION 29 % 54512
2020-04-29 09:50:20 FLAPS EXTENSION 27 % 54513
2020-04-29 09:50:20 FLAPS EXTENSION 26 % 54514
2020-04-29 09:50:20 FLAPS EXTENSION 24 % 54515
2020-04-29 09:50:20 FLAPS EXTENSION 21 % 54516
2020-04-29 09:50:20 FLAPS EXTENSION 19 % 54517
2020-04-29 09:50:21 FLAPS EXTENSION 17 % 54518
2020-04-29 09:50:21 FLAPS EXTENSION 16 % 54518
2020-04-29 09:50:21 FLAPS EXTENSION 14 % 55520
2020-04-29 09:50:21 FLAPS EXTENSION 13 % 55521
2020-04-29 09:50:21 FLAPS EXTENSION 11 % 55522
2020-04-29 09:50:22 FLAPS EXTENSION 11 % 55522
2020-04-29 09:50:36 FLAPS EXTENSION 10 % 58613
2020-04-29 09:50:37 FLAPS EXTENSION 8 % 58614
2020-04-29 09:50:37 FLAPS EXTENSION 6 % 58615
2020-04-29 09:50:37 FLAPS EXTENSION 2 % 58617
2020-04-29 09:50:37 FLAPS EXTENSION 0 % 58619
2020-04-29 09:50:37 FLAPS EXTENSION 0 % 58620
2020-04-29 09:54:13 CRUISE721744
2020-04-29 09:55:43 CLIMBING662010
2020-04-29 09:56:23 CRUISE672128
2020-04-29 09:57:13 CLIMBING662286
2020-04-29 09:58:03 CRUISE672427
2020-04-29 09:59:03 CLIMBING672592
2020-04-29 10:00:23 CRUISE642897
2020-04-29 10:01:03 CLIMBING633085
2020-04-29 10:01:43 CRUISE643271
2020-04-29 10:02:13 CLIMBING643406
2020-04-29 10:06:43 CRUISE644346
2020-04-29 10:07:23 CLIMBING654460
2020-04-29 10:11:43 CRUISE655169
2020-04-29 10:13:33 CLIMBING685315
2020-04-29 10:14:03 CRUISE685354
2020-04-29 10:23:43 DESCEND1125642
2020-04-29 10:32:53 CRUISE1093135
2020-04-29 10:33:33 DESCEND1292692
2020-04-29 10:34:43 CRUISE1102376
2020-04-29 10:35:13 DESCEND1252063
2020-04-29 10:37:13 CRUISE1181587
2020-04-29 10:37:43 DESCEND1211390
2020-04-29 10:38:13 CRUISE1111391
2020-04-29 10:38:43 DESCEND1241211
2020-04-29 10:39:43 CRUISE1121245
2020-04-29 10:40:53 CLIMBING981486
2020-04-29 10:41:23 CRUISE981531
2020-04-29 10:42:13 CLIMBING981691
2020-04-29 10:42:43 CRUISE1021705
2020-04-29 10:47:23 CLIMBING961709
2020-04-29 10:47:53 CRUISE971667
2020-04-29 10:49:13 DESCEND601488
2020-04-29 10:49:22 FLAPS EXTENSION 3 % 601423
2020-04-29 10:49:22 FLAPS EXTENSION 5 % 601421
2020-04-29 10:49:22 FLAPS EXTENSION 7 % 601420
2020-04-29 10:49:22 FLAPS EXTENSION 11 % 601418
2020-04-29 10:49:23 FLAPS EXTENSION 15 % 601415
2020-04-29 10:49:23 FLAPS EXTENSION 17 % 601413
2020-04-29 10:49:23 FLAPS EXTENSION 18 % 601412
2020-04-29 10:49:23 FLAPS EXTENSION 22 % 601410
2020-04-29 10:49:24 FLAPS EXTENSION 25 % 601408
2020-04-29 10:50:53 CRUISE56922
2020-04-29 10:51:23 DESCEND54744
2020-04-29 10:51:34 FLAPS EXTENSION 27 % 55690
2020-04-29 10:51:34 FLAPS EXTENSION 28 % 55690
2020-04-29 10:51:34 FLAPS EXTENSION 30 % 55689
2020-04-29 10:51:34 FLAPS EXTENSION 33 % 55688
2020-04-29 10:51:34 FLAPS EXTENSION 35 % 55687
2020-04-29 10:51:34 FLAPS EXTENSION 37 % 55687
2020-04-29 10:51:35 FLAPS EXTENSION 40 % 55686
2020-04-29 10:51:35 FLAPS EXTENSION 42 % 55686
2020-04-29 10:51:35 FLAPS EXTENSION 44 % 54685
2020-04-29 10:51:35 FLAPS EXTENSION 45 % 54685
2020-04-29 10:51:35 FLAPS EXTENSION 47 % 54684
2020-04-29 10:51:35 FLAPS EXTENSION 50 % 54683
2020-04-29 10:51:36 FLAPS EXTENSION 52 % 54683
2020-04-29 10:51:36 FLAPS EXTENSION 54 % 54682
2020-04-29 10:51:36 FLAPS EXTENSION 55 % 54682
2020-04-29 10:51:36 FLAPS EXTENSION 59 % 54681
2020-04-29 10:51:36 FLAPS EXTENSION 61 % 54681
2020-04-29 10:51:36 FLAPS EXTENSION 62 % 54681
2020-04-29 10:51:37 FLAPS EXTENSION 64 % 54680
2020-04-29 10:51:37 FLAPS EXTENSION 66 % 53680
2020-04-29 10:51:37 FLAPS EXTENSION 67 % 53680
2020-04-29 10:51:37 FLAPS EXTENSION 69 % 53679
2020-04-29 10:51:37 FLAPS EXTENSION 72 % 53679
2020-04-29 10:51:37 FLAPS EXTENSION 74 % 53679
2020-04-29 10:51:38 FLAPS EXTENSION 76 % 53678
2020-04-29 10:51:47 FLAPS EXTENSION 77 % 49653
2020-04-29 10:51:47 FLAPS EXTENSION 78 % 49652
2020-04-29 10:51:47 FLAPS EXTENSION 80 % 49651
2020-04-29 10:51:48 FLAPS EXTENSION 83 % 49650
2020-04-29 10:51:48 FLAPS EXTENSION 85 % 49649
2020-04-29 10:51:48 FLAPS EXTENSION 87 % 49648
2020-04-29 10:51:48 FLAPS EXTENSION 90 % 49648
2020-04-29 10:51:48 FLAPS EXTENSION 92 % 49647
2020-04-29 10:51:49 FLAPS EXTENSION 94 % 49646
2020-04-29 10:51:49 FLAPS EXTENSION 95 % 49646
2020-04-29 10:51:49 FLAPS EXTENSION 97 % 49645
2020-04-29 10:51:49 FLAPS EXTENSION 99 % 49645
2020-04-29 10:51:49 FLAPS EXTENSION 100 % 49644
2020-04-29 10:51:55 FLAPS EXTENSION 98 % 47623
2020-04-29 10:51:55 FLAPS EXTENSION 97 % 47622
2020-04-29 10:51:56 FLAPS EXTENSION 95 % 47621
2020-04-29 10:51:56 FLAPS EXTENSION 98 % 47620
2020-04-29 10:51:56 FLAPS EXTENSION 99 % 47620
2020-04-29 10:51:56 FLAPS EXTENSION 100 % 47619
2020-04-29 10:52:23 CRUISE50595
2020-04-29 10:53:53 DESCEND50425
2020-04-29 10:55:23 CRUISE4828
2020-04-29 10:55:47 LANDING5026
2020-04-29 10:56:01 FLAPS EXTENSION 98 % 3623
2020-04-29 10:56:01 FLAPS EXTENSION 96 % 3523
2020-04-29 10:56:01 FLAPS EXTENSION 92 % 3523
2020-04-29 10:56:01 FLAPS EXTENSION 90 % 3523
2020-04-29 10:56:02 FLAPS EXTENSION 89 % 3423
2020-04-29 10:56:02 FLAPS EXTENSION 87 % 3423
2020-04-29 10:56:02 FLAPS EXTENSION 85 % 3423
2020-04-29 10:56:02 FLAPS EXTENSION 83 % 3423
2020-04-29 10:56:02 FLAPS EXTENSION 81 % 3323
2020-04-29 10:56:02 FLAPS EXTENSION 78 % 3323
2020-04-29 10:56:03 FLAPS EXTENSION 76 % 3323
2020-04-29 10:56:03 FLAPS EXTENSION 74 % 3323
2020-04-29 10:56:03 FLAPS EXTENSION 72 % 3223
2020-04-29 10:56:03 FLAPS EXTENSION 71 % 3223
2020-04-29 10:56:03 FLAPS EXTENSION 67 % 3123
2020-04-29 10:56:03 FLAPS EXTENSION 65 % 3123
2020-04-29 10:56:04 FLAPS EXTENSION 63 % 3123
2020-04-29 10:56:04 FLAPS EXTENSION 61 % 3123
2020-04-29 10:56:04 FLAPS EXTENSION 58 % 3023
2020-04-29 10:56:04 FLAPS EXTENSION 56 % 3023
2020-04-29 10:56:04 FLAPS EXTENSION 52 % 3023
2020-04-29 10:56:05 FLAPS EXTENSION 49 % 2923
2020-04-29 10:56:05 FLAPS EXTENSION 47 % 2923
2020-04-29 10:56:05 FLAPS EXTENSION 45 % 2823
2020-04-29 10:56:05 FLAPS EXTENSION 43 % 2823
2020-04-29 10:56:05 FLAPS EXTENSION 42 % 2823
2020-04-29 10:56:06 FLAPS EXTENSION 40 % 2723
2020-04-29 10:56:06 FLAPS EXTENSION 38 % 2723
2020-04-29 10:56:06 FLAPS EXTENSION 34 % 2723
2020-04-29 10:56:06 FLAPS EXTENSION 33 % 2723
2020-04-29 10:56:06 FLAPS EXTENSION 31 % 2623
2020-04-29 10:56:06 FLAPS EXTENSION 29 % 2623
2020-04-29 10:56:06 FLAPS EXTENSION 27 % 2623
2020-04-29 10:56:07 FLAPS EXTENSION 25 % 2623
2020-04-29 10:56:07 FLAPS EXTENSION 24 % 2623
2020-04-29 10:56:07 FLAPS EXTENSION 22 % 2523
2020-04-29 10:56:07 FLAPS EXTENSION 20 % 2523
2020-04-29 10:56:07 FLAPS EXTENSION 18 % 2523
2020-04-29 10:56:07 FLAPS EXTENSION 16 % 2523
2020-04-29 10:56:07 FLAPS EXTENSION 15 % 2523
2020-04-29 10:56:08 FLAPS EXTENSION 13 % 2423
2020-04-29 10:56:08 FLAPS EXTENSION 11 % 2423
2020-04-29 10:56:08 FLAPS EXTENSION 9 % 2423
2020-04-29 10:56:08 FLAPS EXTENSION 7 % 2423
2020-04-29 10:56:08 FLAPS EXTENSION 4 % 2423
2020-04-29 10:56:09 FLAPS EXTENSION 2 % 2423
2020-04-29 10:56:09 FLAPS EXTENSION 0 % 2423
2020-04-29 10:56:10 FLAPS EXTENSION 1 % 2223
2020-04-29 10:56:10 FLAPS EXTENSION 3 % 2223
2020-04-29 10:56:10 FLAPS EXTENSION 0 % 2223
2020-04-29 10:56:11 FLAPS EXTENSION 0 % 2223
2020-04-29 10:56:13 TAXI TO THE GATE2023
2020-04-29 10:59:48 STOPPING ENGINE 1 023
 ACARS DATA
DATE IASGSALTITUDEFUEL CONSUMED OATFLIGHT STATUS
2020-04-29 09:39:4600111023BOARDING
2020-04-29 09:40:4600111023BOARDING
2020-04-29 09:41:4600111123BOARDING
2020-04-29 09:42:4600111223BOARDING
2020-04-29 09:43:4600111323BOARDING
2020-04-29 09:44:4600111423BOARDING
2020-04-29 09:45:4600111523BOARDING
2020-04-29 09:46:4645112623BOARDING
2020-04-29 09:47:4600111723BOARDING
2020-04-29 09:48:4600111823BOARDING
2020-04-29 09:49:4641403311023CLIMBING
2020-04-29 09:50:4659606801322CLIMBING
2020-04-29 09:51:46646410541421CLIMBING
2020-04-29 09:52:46646514061620CLIMBING
2020-04-29 09:53:46707216801720CLIMBING
2020-04-29 09:54:46687118291919CRUISE
2020-04-29 09:55:46666920212019CLIMBING
2020-04-29 09:56:46656822122119CRUISE
2020-04-29 09:57:46656823882318CLIMBING
2020-04-29 09:58:46687225292418CRUISE
2020-04-29 09:59:46677027412617CLIMBING
2020-04-29 10:00:46646729902717CRUISE
2020-04-29 10:01:46646632832916CRUISE
2020-04-29 10:02:46626535733016CLIMBING
2020-04-29 10:03:46626737623115CLIMBING
2020-04-29 10:04:46646739673215CLIMBING
2020-04-29 10:05:46646841683414CLIMBING
2020-04-29 10:06:46646943523514CRUISE
2020-04-29 10:07:46636745383613CLIMBING
2020-04-29 10:08:46636847023713CLIMBING
2020-04-29 10:09:46636848673813CLIMBING
2020-04-29 10:10:46647050243912CLIMBING
2020-04-29 10:11:46657051694012CRUISE
2020-04-29 10:12:46687352444112CRUISE
2020-04-29 10:13:46677253374212CLIMBING
2020-04-29 10:14:46687354124311CRUISE
2020-04-29 10:15:46697454874411CRUISE
2020-04-29 10:16:46717755474511CRUISE
2020-04-29 10:17:46727756274511CRUISE
2020-04-29 10:18:46737956934611CRUISE
2020-04-29 10:19:46758157514711CRUISE
2020-04-29 10:20:46798657854811CRUISE
2020-04-29 10:21:46859258814910CRUISE
2020-04-29 10:22:4610010858225011CRUISE
2020-04-29 10:23:4611312256145111DESCEND
2020-04-29 10:24:4611011853585212DESCEND
2020-04-29 10:25:4611212050885312DESCEND
2020-04-29 10:26:4611612347535413DESCEND
2020-04-29 10:27:4611312045015513DESCEND
2020-04-29 10:28:4611812541305614DESCEND
2020-04-29 10:29:4611512238745715DESCEND
2020-04-29 10:30:4611512135975815DESCEND
2020-04-29 10:31:4611512133525916DESCEND
2020-04-29 10:32:4611111631306017DESCEND
2020-04-29 10:33:4612813325436118DESCEND
2020-04-29 10:34:4611011523656318CRUISE
2020-04-29 10:35:4610510921156419DESCEND
2020-04-29 10:36:4612813116676520DESCEND
2020-04-29 10:37:4612112413726720DESCEND
2020-04-29 10:38:4612412711846821DESCEND
2020-04-29 10:39:4611211412437021CRUISE
2020-04-29 10:40:469810014517120CRUISE
2020-04-29 10:41:469810016237320CRUISE
2020-04-29 10:42:4610210416997420CRUISE
2020-04-29 10:43:46979917297620CRUISE
2020-04-29 10:44:46979817727720CRUISE
2020-04-29 10:45:46979817477920CRUISE
2020-04-29 10:46:46949517028020CRUISE
2020-04-29 10:47:46969716818120CLIMBING
2020-04-29 10:48:46797916438220CRUISE
2020-04-29 10:49:46545412388321DESCEND
2020-04-29 10:50:4656569428421DESCEND
2020-04-29 10:51:4649496578522DESCEND
2020-04-29 10:52:4649485958722CRUISE
2020-04-29 10:53:4650494468823CRUISE
2020-04-29 10:54:4652511558923DESCEND
2020-04-29 10:55:464948269123CRUISE
2020-04-29 10:56:4643229123TAXI TO THE GATE
2020-04-29 10:57:4654229223TAXI TO THE GATE
2020-04-29 10:58:4623229323TAXI TO THE GATE
2020-04-29 10:59:4600229423TAXI TO THE GATE